sensor_id;sensor_type;location;lat;lon;timestamp;temperature;humidity
53045;DHT22;38930;52.766;6.884;2023-06-14T00:01:54;17.80;84.60
53045;DHT22;38930;52.766;6.884;2023-06-14T00:04:20;17.80;86.30
53045;DHT22;38930;52.766;6.884;2023-06-14T00:06:47;17.70;86.60
53045;DHT22;38930;52.766;6.884;2023-06-14T00:09:14;17.70;86.50
53045;DHT22;38930;52.766;6.884;2023-06-14T00:11:40;17.70;86.50
53045;DHT22;38930;52.766;6.884;2023-06-14T00:14:08;17.60;86.70
53045;DHT22;38930;52.766;6.884;2023-06-14T00:16:34;17.50;87.60
53045;DHT22;38930;52.766;6.884;2023-06-14T00:19:01;17.50;87.20
53045;DHT22;38930;52.766;6.884;2023-06-14T00:21:29;17.40;87.80
53045;DHT22;38930;52.766;6.884;2023-06-14T00:23:55;17.30;87.50
53045;DHT22;38930;52.766;6.884;2023-06-14T00:26:21;17.30;87.30
53045;DHT22;38930;52.766;6.884;2023-06-14T00:28:47;17.20;88.30
53045;DHT22;38930;52.766;6.884;2023-06-14T00:31:12;17.10;89.10
53045;DHT22;38930;52.766;6.884;2023-06-14T00:33:38;17.10;88.90
53045;DHT22;38930;52.766;6.884;2023-06-14T00:36:04;17.00;89.10
53045;DHT22;38930;52.766;6.884;2023-06-14T00:38:29;17.00;88.70
53045;DHT22;38930;52.766;6.884;2023-06-14T00:40:55;17.00;90.00
53045;DHT22;38930;52.766;6.884;2023-06-14T00:43:20;17.00;89.40
53045;DHT22;38930;52.766;6.884;2023-06-14T00:45:46;16.90;89.30
53045;DHT22;38930;52.766;6.884;2023-06-14T00:48:12;16.90;90.60
53045;DHT22;38930;52.766;6.884;2023-06-14T00:50:39;16.80;90.20
53045;DHT22;38930;52.766;6.884;2023-06-14T00:53:07;16.80;90.40
53045;DHT22;38930;52.766;6.884;2023-06-14T00:55:32;16.80;90.50
53045;DHT22;38930;52.766;6.884;2023-06-14T00:57:58;16.80;90.70
53045;DHT22;38930;52.766;6.884;2023-06-14T01:00:24;16.70;90.70
53045;DHT22;38930;52.766;6.884;2023-06-14T01:02:50;16.70;90.70
53045;DHT22;38930;52.766;6.884;2023-06-14T01:05:16;16.60;91.00
53045;DHT22;38930;52.766;6.884;2023-06-14T01:11:00;16.50;91.30
53045;DHT22;38930;52.766;6.884;2023-06-14T01:13:36;16.50;91.00
53045;DHT22;38930;52.766;6.884;2023-06-14T01:16:04;16.50;91.70
53045;DHT22;38930;52.766;6.884;2023-06-14T01:18:30;16.50;92.10
53045;DHT22;38930;52.766;6.884;2023-06-14T01:20:57;16.40;92.40
53045;DHT22;38930;52.766;6.884;2023-06-14T01:23:23;16.40;92.10
53045;DHT22;38930;52.766;6.884;2023-06-14T01:25:49;16.30;92.20
53045;DHT22;38930;52.766;6.884;2023-06-14T01:28:20;16.30;92.90
53045;DHT22;38930;52.766;6.884;2023-06-14T01:30:49;16.50;92.70
53045;DHT22;38930;52.766;6.884;2023-06-14T01:33:20;16.20;93.50
53045;DHT22;38930;52.766;6.884;2023-06-14T01:35:48;16.20;93.40
53045;DHT22;38930;52.766;6.884;2023-06-14T01:38:14;16.20;93.60
53045;DHT22;38930;52.766;6.884;2023-06-14T01:40:42;16.20;93.80
53045;DHT22;38930;52.766;6.884;2023-06-14T01:43:09;16.10;94.30
53045;DHT22;38930;52.766;6.884;2023-06-14T01:45:35;16.10;94.00
53045;DHT22;38930;52.766;6.884;2023-06-14T01:48:02;16.10;94.70
53045;DHT22;38930;52.766;6.884;2023-06-14T01:50:30;16.00;94.90
53045;DHT22;38930;52.766;6.884;2023-06-14T01:52:55;16.00;94.70
53045;DHT22;38930;52.766;6.884;2023-06-14T01:55:21;16.00;95.40
53045;DHT22;38930;52.766;6.884;2023-06-14T01:57:47;16.00;95.20
53045;DHT22;38930;52.766;6.884;2023-06-14T02:00:14;15.80;95.30
53045;DHT22;38930;52.766;6.884;2023-06-14T02:02:40;15.80;96.20
53045;DHT22;38930;52.766;6.884;2023-06-14T02:05:06;15.80;96.10
53045;DHT22;38930;52.766;6.884;2023-06-14T02:07:32;15.80;96.70
53045;DHT22;38930;52.766;6.884;2023-06-14T02:09:58;15.80;96.70
53045;DHT22;38930;52.766;6.884;2023-06-14T02:12:25;15.70;96.50
53045;DHT22;38930;52.766;6.884;2023-06-14T02:14:51;15.70;96.90
53045;DHT22;38930;52.766;6.884;2023-06-14T02:17:16;15.70;97.80
53045;DHT22;38930;52.766;6.884;2023-06-14T02:19:42;15.70;97.30
53045;DHT22;38930;52.766;6.884;2023-06-14T02:22:08;15.60;98.20
53045;DHT22;38930;52.766;6.884;2023-06-14T02:24:34;15.60;98.40
53045;DHT22;38930;52.766;6.884;2023-06-14T02:27:01;15.50;98.40
53045;DHT22;38930;52.766;6.884;2023-06-14T02:29:27;15.50;97.00
53045;DHT22;38930;52.766;6.884;2023-06-14T02:31:52;15.40;98.80
53045;DHT22;38930;52.766;6.884;2023-06-14T02:34:18;15.50;99.20
53045;DHT22;38930;52.766;6.884;2023-06-14T02:36:45;15.40;99.90
53045;DHT22;38930;52.766;6.884;2023-06-14T02:39:11;15.40;99.90
53045;DHT22;38930;52.766;6.884;2023-06-14T02:41:37;15.40;99.90
53045;DHT22;38930;52.766;6.884;2023-06-14T02:44:03;15.40;99.80
53045;DHT22;38930;52.766;6.884;2023-06-14T02:46:28;15.30;99.90
53045;DHT22;38930;52.766;6.884;2023-06-14T02:48:54;15.40;99.90
53045;DHT22;38930;52.766;6.884;2023-06-14T02:51:20;15.40;99.90
53045;DHT22;38930;52.766;6.884;2023-06-14T02:53:45;15.30;99.90
53045;DHT22;38930;52.766;6.884;2023-06-14T02:56:11;15.30;99.90
53045;DHT22;38930;52.766;6.884;2023-06-14T02:58:37;15.30;99.90
53045;DHT22;38930;52.766;6.884;2023-06-14T03:01:07;15.20;99.90
53045;DHT22;38930;52.766;6.884;2023-06-14T03:03:33;15.20;99.90
53045;DHT22;38930;52.766;6.884;2023-06-14T03:05:59;15.20;99.90
53045;DHT22;38930;52.766;6.884;2023-06-14T03:08:31;15.20;99.90
53045;DHT22;38930;52.766;6.884;2023-06-14T03:11:04;15.20;99.90
53045;DHT22;38930;52.766;6.884;2023-06-14T03:13:30;15.10;99.90
53045;DHT22;38930;52.766;6.884;2023-06-14T03:15:57;15.20;99.90
53045;DHT22;38930;52.766;6.884;2023-06-14T03:18:23;15.10;99.90
53045;DHT22;38930;52.766;6.884;2023-06-14T03:20:49;15.10;99.90
53045;DHT22;38930;52.766;6.884;2023-06-14T03:23:16;15.00;99.90
53045;DHT22;38930;52.766;6.884;2023-06-14T03:25:43;15.00;99.90
53045;DHT22;38930;52.766;6.884;2023-06-14T03:28:08;15.00;99.90
53045;DHT22;38930;52.766;6.884;2023-06-14T03:30:34;14.90;99.90
53045;DHT22;38930;52.766;6.884;2023-06-14T03:33:00;15.00;99.90
53045;DHT22;38930;52.766;6.884;2023-06-14T03:35:27;15.00;99.90
53045;DHT22;38930;52.766;6.884;2023-06-14T03:37:53;14.90;99.90
53045;DHT22;38930;52.766;6.884;2023-06-14T03:40:19;14.90;99.90
53045;DHT22;38930;52.766;6.884;2023-06-14T03:42:47;14.90;99.90
53045;DHT22;38930;52.766;6.884;2023-06-14T03:45:13;14.90;99.90
53045;DHT22;38930;52.766;6.884;2023-06-14T03:47:38;15.00;99.90
53045;DHT22;38930;52.766;6.884;2023-06-14T03:50:04;15.00;99.90
53045;DHT22;38930;52.766;6.884;2023-06-14T03:52:31;15.00;99.90
53045;DHT22;38930;52.766;6.884;2023-06-14T03:54:58;15.00;99.90
53045;DHT22;38930;52.766;6.884;2023-06-14T03:57:25;15.00;99.90
53045;DHT22;38930;52.766;6.884;2023-06-14T03:59:51;15.00;99.90
53045;DHT22;38930;52.766;6.884;2023-06-14T04:02:17;15.10;99.90
53045;DHT22;38930;52.766;6.884;2023-06-14T04:04:43;15.20;99.90
53045;DHT22;38930;52.766;6.884;2023-06-14T04:07:16;15.10;99.90
53045;DHT22;38930;52.766;6.884;2023-06-14T04:09:45;15.10;99.90
53045;DHT22;38930;52.766;6.884;2023-06-14T04:12:11;15.00;99.90
53045;DHT22;38930;52.766;6.884;2023-06-14T04:14:40;15.10;99.90
53045;DHT22;38930;52.766;6.884;2023-06-14T04:17:06;15.10;99.90
53045;DHT22;38930;52.766;6.884;2023-06-14T04:19:32;15.10;99.90
53045;DHT22;38930;52.766;6.884;2023-06-14T04:21:58;15.10;99.90
53045;DHT22;38930;52.766;6.884;2023-06-14T04:24:26;15.10;99.90
53045;DHT22;38930;52.766;6.884;2023-06-14T04:26:58;15.20;99.90
53045;DHT22;38930;52.766;6.884;2023-06-14T04:29:24;15.20;99.90
53045;DHT22;38930;52.766;6.884;2023-06-14T04:31:53;15.20;99.90
53045;DHT22;38930;52.766;6.884;2023-06-14T04:34:20;15.20;99.90
53045;DHT22;38930;52.766;6.884;2023-06-14T04:36:47;15.20;99.90
53045;DHT22;38930;52.766;6.884;2023-06-14T04:39:19;15.30;99.90
53045;DHT22;38930;52.766;6.884;2023-06-14T04:41:44;15.20;99.90
53045;DHT22;38930;52.766;6.884;2023-06-14T04:44:10;15.30;99.90
53045;DHT22;38930;52.766;6.884;2023-06-14T04:46:38;15.30;99.90
53045;DHT22;38930;52.766;6.884;2023-06-14T04:49:14;15.40;99.90
53045;DHT22;38930;52.766;6.884;2023-06-14T04:51:41;15.40;99.90
53045;DHT22;38930;52.766;6.884;2023-06-14T04:54:08;15.40;99.90
53045;DHT22;38930;52.766;6.884;2023-06-14T04:56:36;15.50;99.90
53045;DHT22;38930;52.766;6.884;2023-06-14T04:59:03;15.50;99.90
53045;DHT22;38930;52.766;6.884;2023-06-14T05:01:32;15.50;99.90
53045;DHT22;38930;52.766;6.884;2023-06-14T05:03:58;15.50;99.90
53045;DHT22;38930;52.766;6.884;2023-06-14T05:06:24;15.60;99.90
53045;DHT22;38930;52.766;6.884;2023-06-14T05:08:51;15.60;99.90
53045;DHT22;38930;52.766;6.884;2023-06-14T05:11:17;15.70;99.90
53045;DHT22;38930;52.766;6.884;2023-06-14T05:13:43;15.70;99.90
53045;DHT22;38930;52.766;6.884;2023-06-14T05:16:10;15.80;99.90
53045;DHT22;38930;52.766;6.884;2023-06-14T05:18:36;15.80;99.90
53045;DHT22;38930;52.766;6.884;2023-06-14T05:21:03;15.90;99.90
53045;DHT22;38930;52.766;6.884;2023-06-14T05:23:30;15.90;99.90
53045;DHT22;38930;52.766;6.884;2023-06-14T05:25:55;16.20;99.90
53045;DHT22;38930;52.766;6.884;2023-06-14T05:28:22;16.50;99.90
53045;DHT22;38930;52.766;6.884;2023-06-14T05:30:48;16.80;99.90
53045;DHT22;38930;52.766;6.884;2023-06-14T05:33:13;17.20;99.90
53045;DHT22;38930;52.766;6.884;2023-06-14T05:35:39;17.60;99.90
53045;DHT22;38930;52.766;6.884;2023-06-14T05:38:04;18.00;99.90
53045;DHT22;38930;52.766;6.884;2023-06-14T05:40:31;18.30;99.90
53045;DHT22;38930;52.766;6.884;2023-06-14T05:42:56;18.70;99.90
53045;DHT22;38930;52.766;6.884;2023-06-14T05:45:22;19.10;99.90
53045;DHT22;38930;52.766;6.884;2023-06-14T05:47:48;19.30;99.80
53045;DHT22;38930;52.766;6.884;2023-06-14T05:50:13;19.60;99.00
53045;DHT22;38930;52.766;6.884;2023-06-14T05:52:39;19.80;97.70
53045;DHT22;38930;52.766;6.884;2023-06-14T05:55:05;20.10;98.10
53045;DHT22;38930;52.766;6.884;2023-06-14T05:57:31;20.30;96.90
53045;DHT22;38930;52.766;6.884;2023-06-14T05:59:57;20.50;96.90
53045;DHT22;38930;52.766;6.884;2023-06-14T06:02:22;20.70;96.40
53045;DHT22;38930;52.766;6.884;2023-06-14T06:04:48;20.80;96.20
53045;DHT22;38930;52.766;6.884;2023-06-14T06:07:13;20.90;95.50
53045;DHT22;38930;52.766;6.884;2023-06-14T06:09:39;21.10;95.90
53045;DHT22;38930;52.766;6.884;2023-06-14T06:12:10;21.40;94.40
53045;DHT22;38930;52.766;6.884;2023-06-14T06:14:36;21.30;94.70
53045;DHT22;38930;52.766;6.884;2023-06-14T06:17:02;21.40;93.90
53045;DHT22;38930;52.766;6.884;2023-06-14T06:19:27;21.40;94.50
53045;DHT22;38930;52.766;6.884;2023-06-14T06:21:53;21.60;94.00
53045;DHT22;38930;52.766;6.884;2023-06-14T06:24:18;21.60;93.90
53045;DHT22;38930;52.766;6.884;2023-06-14T06:26:44;21.60;93.30
53045;DHT22;38930;52.766;6.884;2023-06-14T06:29:09;21.60;93.20
53045;DHT22;38930;52.766;6.884;2023-06-14T06:31:35;21.80;93.10
53045;DHT22;38930;52.766;6.884;2023-06-14T06:34:01;21.70;93.70
53045;DHT22;38930;52.766;6.884;2023-06-14T06:36:26;21.80;93.30
53045;DHT22;38930;52.766;6.884;2023-06-14T06:38:52;21.60;93.20
53045;DHT22;38930;52.766;6.884;2023-06-14T06:41:18;21.60;93.00
53045;DHT22;38930;52.766;6.884;2023-06-14T06:43:44;21.70;93.00
53045;DHT22;38930;52.766;6.884;2023-06-14T06:46:10;21.50;92.70
53045;DHT22;38930;52.766;6.884;2023-06-14T06:48:35;21.50;93.00
53045;DHT22;38930;52.766;6.884;2023-06-14T06:51:01;21.50;93.20
53045;DHT22;38930;52.766;6.884;2023-06-14T06:53:26;21.50;92.50
53045;DHT22;38930;52.766;6.884;2023-06-14T06:55:52;21.50;92.50
53045;DHT22;38930;52.766;6.884;2023-06-14T06:58:17;21.60;92.30
53045;DHT22;38930;52.766;6.884;2023-06-14T07:00:43;21.70;92.30
53045;DHT22;38930;52.766;6.884;2023-06-14T07:03:08;21.90;92.70
53045;DHT22;38930;52.766;6.884;2023-06-14T07:05:34;21.90;92.50
53045;DHT22;38930;52.766;6.884;2023-06-14T07:08:00;22.00;91.90
53045;DHT22;38930;52.766;6.884;2023-06-14T07:10:26;22.00;92.10
53045;DHT22;38930;52.766;6.884;2023-06-14T07:12:51;22.00;91.60
53045;DHT22;38930;52.766;6.884;2023-06-14T07:15:17;22.10;91.70
53045;DHT22;38930;52.766;6.884;2023-06-14T07:17:42;21.90;91.90
53045;DHT22;38930;52.766;6.884;2023-06-14T07:20:09;22.00;91.80
53045;DHT22;38930;52.766;6.884;2023-06-14T07:22:38;22.00;91.40
53045;DHT22;38930;52.766;6.884;2023-06-14T07:25:06;22.10;91.30
53045;DHT22;38930;52.766;6.884;2023-06-14T07:27:33;22.20;91.60
53045;DHT22;38930;52.766;6.884;2023-06-14T07:29:59;22.40;91.00
53045;DHT22;38930;52.766;6.884;2023-06-14T07:32:25;22.50;90.30
53045;DHT22;38930;52.766;6.884;2023-06-14T07:34:50;22.50;90.50
53045;DHT22;38930;52.766;6.884;2023-06-14T07:37:16;22.60;90.30
53045;DHT22;38930;52.766;6.884;2023-06-14T07:39:41;22.50;90.00
53045;DHT22;38930;52.766;6.884;2023-06-14T07:42:07;22.60;89.20
53045;DHT22;38930;52.766;6.884;2023-06-14T07:44:33;22.70;89.60
53045;DHT22;38930;52.766;6.884;2023-06-14T07:46:58;22.80;89.50
53045;DHT22;38930;52.766;6.884;2023-06-14T07:49:25;22.70;87.70
53045;DHT22;38930;52.766;6.884;2023-06-14T07:51:51;22.60;88.50
53045;DHT22;38930;52.766;6.884;2023-06-14T07:54:16;22.70;89.30
53045;DHT22;38930;52.766;6.884;2023-06-14T07:56:42;23.00;88.20
53045;DHT22;38930;52.766;6.884;2023-06-14T07:59:08;23.00;85.60
53045;DHT22;38930;52.766;6.884;2023-06-14T08:01:34;23.00;86.10
53045;DHT22;38930;52.766;6.884;2023-06-14T08:04:00;23.10;86.40
53045;DHT22;38930;52.766;6.884;2023-06-14T08:06:26;23.10;86.10
53045;DHT22;38930;52.766;6.884;2023-06-14T08:08:52;23.10;85.10
53045;DHT22;38930;52.766;6.884;2023-06-14T08:11:18;23.10;85.80
53045;DHT22;38930;52.766;6.884;2023-06-14T08:13:43;23.20;85.60
53045;DHT22;38930;52.766;6.884;2023-06-14T08:16:09;23.30;84.40
53045;DHT22;38930;52.766;6.884;2023-06-14T08:18:35;23.40;85.80
53045;DHT22;38930;52.766;6.884;2023-06-14T08:21:00;23.50;84.60
53045;DHT22;38930;52.766;6.884;2023-06-14T08:23:26;23.60;83.30
53045;DHT22;38930;52.766;6.884;2023-06-14T08:25:52;23.70;82.30
53045;DHT22;38930;52.766;6.884;2023-06-14T08:28:18;23.60;81.80
53045;DHT22;38930;52.766;6.884;2023-06-14T08:30:43;23.60;82.80
53045;DHT22;38930;52.766;6.884;2023-06-14T08:33:09;23.70;83.60
53045;DHT22;38930;52.766;6.884;2023-06-14T08:35:34;23.90;83.60
53045;DHT22;38930;52.766;6.884;2023-06-14T08:38:03;23.90;83.50
53045;DHT22;38930;52.766;6.884;2023-06-14T08:40:29;24.00;82.60
53045;DHT22;38930;52.766;6.884;2023-06-14T08:42:55;24.20;81.30
53045;DHT22;38930;52.766;6.884;2023-06-14T08:45:22;24.20;83.20
53045;DHT22;38930;52.766;6.884;2023-06-14T08:47:49;24.30;81.10
53045;DHT22;38930;52.766;6.884;2023-06-14T08:50:24;24.40;82.00
53045;DHT22;38930;52.766;6.884;2023-06-14T08:52:56;24.40;81.60
53045;DHT22;38930;52.766;6.884;2023-06-14T08:55:23;24.40;79.60
53045;DHT22;38930;52.766;6.884;2023-06-14T08:57:54;24.40;80.00
53045;DHT22;38930;52.766;6.884;2023-06-14T09:00:20;24.60;80.30
53045;DHT22;38930;52.766;6.884;2023-06-14T09:02:46;24.60;79.70
53045;DHT22;38930;52.766;6.884;2023-06-14T09:05:15;24.60;80.10
53045;DHT22;38930;52.766;6.884;2023-06-14T09:07:44;24.60;78.70
53045;DHT22;38930;52.766;6.884;2023-06-14T09:10:13;24.50;78.60
53045;DHT22;38930;52.766;6.884;2023-06-14T09:12:39;24.60;79.50
53045;DHT22;38930;52.766;6.884;2023-06-14T09:15:05;24.60;78.50
53045;DHT22;38930;52.766;6.884;2023-06-14T09:17:36;24.70;78.90
53045;DHT22;38930;52.766;6.884;2023-06-14T09:20:07;24.80;79.90
53045;DHT22;38930;52.766;6.884;2023-06-14T09:22:37;25.00;79.50
53045;DHT22;38930;52.766;6.884;2023-06-14T09:25:03;25.10;78.20
53045;DHT22;38930;52.766;6.884;2023-06-14T09:27:29;25.20;77.50
53045;DHT22;38930;52.766;6.884;2023-06-14T09:29:55;25.10;75.70
53045;DHT22;38930;52.766;6.884;2023-06-14T09:32:21;24.90;76.20
53045;DHT22;38930;52.766;6.884;2023-06-14T09:34:47;25.00;77.20
53045;DHT22;38930;52.766;6.884;2023-06-14T09:37:17;25.20;77.80
53045;DHT22;38930;52.766;6.884;2023-06-14T09:39:51;25.30;76.00
53045;DHT22;38930;52.766;6.884;2023-06-14T09:42:17;25.20;74.80
53045;DHT22;38930;52.766;6.884;2023-06-14T09:44:49;25.20;74.60
53045;DHT22;38930;52.766;6.884;2023-06-14T09:47:15;25.10;74.60
53045;DHT22;38930;52.766;6.884;2023-06-14T09:49:42;25.40;75.70
53045;DHT22;38930;52.766;6.884;2023-06-14T09:52:10;25.40;74.10
53045;DHT22;38930;52.766;6.884;2023-06-14T09:54:41;25.30;74.10
53045;DHT22;38930;52.766;6.884;2023-06-14T09:57:12;25.40;75.60
53045;DHT22;38930;52.766;6.884;2023-06-14T09:59:42;25.40;74.20
53045;DHT22;38930;52.766;6.884;2023-06-14T10:02:26;25.40;75.50
53045;DHT22;38930;52.766;6.884;2023-06-14T10:05:05;25.50;75.40
53045;DHT22;38930;52.766;6.884;2023-06-14T10:07:53;25.50;75.30
53045;DHT22;38930;52.766;6.884;2023-06-14T10:10:21;25.50;74.30
53045;DHT22;38930;52.766;6.884;2023-06-14T10:12:47;25.50;74.90
53045;DHT22;38930;52.766;6.884;2023-06-14T10:15:20;25.70;74.30
53045;DHT22;38930;52.766;6.884;2023-06-14T10:17:52;25.60;75.00
53045;DHT22;38930;52.766;6.884;2023-06-14T10:20:41;25.70;74.90
53045;DHT22;38930;52.766;6.884;2023-06-14T10:23:19;25.80;74.10
53045;DHT22;38930;52.766;6.884;2023-06-14T10:25:50;25.60;73.10
53045;DHT22;38930;52.766;6.884;2023-06-14T10:28:17;25.60;73.20
53045;DHT22;38930;52.766;6.884;2023-06-14T10:31:06;25.70;74.10
53045;DHT22;38930;52.766;6.884;2023-06-14T10:33:49;25.70;74.00
53045;DHT22;38930;52.766;6.884;2023-06-14T10:36:25;25.40;74.70
53045;DHT22;38930;52.766;6.884;2023-06-14T10:39:08;25.50;75.30
53045;DHT22;38930;52.766;6.884;2023-06-14T10:41:37;25.40;73.00
53045;DHT22;38930;52.766;6.884;2023-06-14T10:46:39;25.40;74.70
53045;DHT22;38930;52.766;6.884;2023-06-14T10:49:04;25.40;74.90
53045;DHT22;38930;52.766;6.884;2023-06-14T10:51:38;25.40;74.10
53045;DHT22;38930;52.766;6.884;2023-06-14T10:54:15;25.60;74.20
53045;DHT22;38930;52.766;6.884;2023-06-14T10:56:53;25.60;74.80
53045;DHT22;38930;52.766;6.884;2023-06-14T10:59:20;25.80;76.40
53045;DHT22;38930;52.766;6.884;2023-06-14T11:02:04;25.90;73.50
53045;DHT22;38930;52.766;6.884;2023-06-14T11:04:47;26.00;74.50
53045;DHT22;38930;52.766;6.884;2023-06-14T11:07:43;25.90;73.00
53045;DHT22;38930;52.766;6.884;2023-06-14T11:10:35;25.90;74.10
53045;DHT22;38930;52.766;6.884;2023-06-14T11:13:01;26.10;73.60
53045;DHT22;38930;52.766;6.884;2023-06-14T11:15:29;26.10;74.30
53045;DHT22;38930;52.766;6.884;2023-06-14T11:17:55;26.20;74.30
53045;DHT22;38930;52.766;6.884;2023-06-14T11:20:25;26.30;74.00
53045;DHT22;38930;52.766;6.884;2023-06-14T11:22:52;26.50;74.10
53045;DHT22;38930;52.766;6.884;2023-06-14T11:25:18;26.50;73.10
53045;DHT22;38930;52.766;6.884;2023-06-14T11:27:44;26.50;72.20
53045;DHT22;38930;52.766;6.884;2023-06-14T11:30:11;26.20;73.30
53045;DHT22;38930;52.766;6.884;2023-06-14T11:32:40;26.20;73.50
53045;DHT22;38930;52.766;6.884;2023-06-14T11:35:07;26.20;74.40
53045;DHT22;38930;52.766;6.884;2023-06-14T11:37:33;26.40;74.50
53045;DHT22;38930;52.766;6.884;2023-06-14T11:40:02;26.20;75.20
53045;DHT22;38930;52.766;6.884;2023-06-14T11:42:34;26.30;73.70
53045;DHT22;38930;52.766;6.884;2023-06-14T11:45:00;26.20;74.20
53045;DHT22;38930;52.766;6.884;2023-06-14T11:47:35;26.40;74.60
53045;DHT22;38930;52.766;6.884;2023-06-14T11:50:06;26.50;74.40
53045;DHT22;38930;52.766;6.884;2023-06-14T11:52:32;26.50;75.20
53045;DHT22;38930;52.766;6.884;2023-06-14T11:54:58;26.50;74.20
53045;DHT22;38930;52.766;6.884;2023-06-14T11:57:24;26.40;73.60
53045;DHT22;38930;52.766;6.884;2023-06-14T11:59:51;26.60;75.80
53045;DHT22;38930;52.766;6.884;2023-06-14T12:02:19;26.60;74.10
53045;DHT22;38930;52.766;6.884;2023-06-14T12:04:47;26.70;73.40
53045;DHT22;38930;52.766;6.884;2023-06-14T12:07:18;26.70;73.90
53045;DHT22;38930;52.766;6.884;2023-06-14T12:12:26;26.80;74.40
53045;DHT22;38930;52.766;6.884;2023-06-14T12:14:52;26.70;73.80
53045;DHT22;38930;52.766;6.884;2023-06-14T12:17:18;26.70;73.80
53045;DHT22;38930;52.766;6.884;2023-06-14T12:19:48;26.70;73.60
53045;DHT22;38930;52.766;6.884;2023-06-14T12:22:16;26.80;74.90
53045;DHT22;38930;52.766;6.884;2023-06-14T12:24:45;26.90;74.00
53045;DHT22;38930;52.766;6.884;2023-06-14T12:27:12;27.00;74.80
53045;DHT22;38930;52.766;6.884;2023-06-14T12:29:44;27.10;74.20
53045;DHT22;38930;52.766;6.884;2023-06-14T12:32:10;26.90;73.80
53045;DHT22;38930;52.766;6.884;2023-06-14T12:34:36;27.10;76.60
53045;DHT22;38930;52.766;6.884;2023-06-14T12:37:02;27.30;75.00
53045;DHT22;38930;52.766;6.884;2023-06-14T12:39:29;27.40;75.20
53045;DHT22;38930;52.766;6.884;2023-06-14T12:41:57;27.40;74.00
53045;DHT22;38930;52.766;6.884;2023-06-14T12:44:23;27.50;73.70
53045;DHT22;38930;52.766;6.884;2023-06-14T12:46:49;27.50;73.90
53045;DHT22;38930;52.766;6.884;2023-06-14T12:49:16;27.50;73.90
53045;DHT22;38930;52.766;6.884;2023-06-14T12:51:42;27.40;72.60
53045;DHT22;38930;52.766;6.884;2023-06-14T12:54:08;27.30;73.80
53045;DHT22;38930;52.766;6.884;2023-06-14T12:56:34;27.30;73.20
53045;DHT22;38930;52.766;6.884;2023-06-14T12:59:00;27.20;73.80
53045;DHT22;38930;52.766;6.884;2023-06-14T13:01:26;27.20;73.80
53045;DHT22;38930;52.766;6.884;2023-06-14T13:03:51;27.30;74.30
53045;DHT22;38930;52.766;6.884;2023-06-14T13:06:21;27.40;74.60
53045;DHT22;38930;52.766;6.884;2023-06-14T13:08:47;27.30;74.40
53045;DHT22;38930;52.766;6.884;2023-06-14T13:11:13;27.50;74.60
53045;DHT22;38930;52.766;6.884;2023-06-14T13:13:39;27.60;74.30
53045;DHT22;38930;52.766;6.884;2023-06-14T13:16:04;27.70;74.10
53045;DHT22;38930;52.766;6.884;2023-06-14T13:18:30;27.90;72.70
53045;DHT22;38930;52.766;6.884;2023-06-14T13:20:56;27.90;74.10
53045;DHT22;38930;52.766;6.884;2023-06-14T13:23:21;27.80;72.30
53045;DHT22;38930;52.766;6.884;2023-06-14T13:25:47;27.80;73.80
53045;DHT22;38930;52.766;6.884;2023-06-14T13:28:15;27.70;72.20
53045;DHT22;38930;52.766;6.884;2023-06-14T13:30:40;27.80;72.80
53045;DHT22;38930;52.766;6.884;2023-06-14T13:33:06;27.90;73.10
53045;DHT22;38930;52.766;6.884;2023-06-14T13:35:31;27.90;73.30
53045;DHT22;38930;52.766;6.884;2023-06-14T13:37:57;27.70;72.80
53045;DHT22;38930;52.766;6.884;2023-06-14T13:40:23;27.90;73.00
53045;DHT22;38930;52.766;6.884;2023-06-14T13:42:48;27.70;72.30
53045;DHT22;38930;52.766;6.884;2023-06-14T13:45:15;27.50;72.60
53045;DHT22;38930;52.766;6.884;2023-06-14T13:47:41;27.60;72.60
53045;DHT22;38930;52.766;6.884;2023-06-14T13:50:07;27.50;72.50
53045;DHT22;38930;52.766;6.884;2023-06-14T13:52:32;27.60;73.70
53045;DHT22;38930;52.766;6.884;2023-06-14T13:54:58;27.70;72.80
53045;DHT22;38930;52.766;6.884;2023-06-14T13:57:23;27.90;73.80
53045;DHT22;38930;52.766;6.884;2023-06-14T13:59:49;28.10;73.60
53045;DHT22;38930;52.766;6.884;2023-06-14T14:02:15;27.90;72.30
53045;DHT22;38930;52.766;6.884;2023-06-14T14:04:41;27.60;72.80
53045;DHT22;38930;52.766;6.884;2023-06-14T14:07:07;27.60;73.40
53045;DHT22;38930;52.766;6.884;2023-06-14T14:09:33;27.50;72.30
53045;DHT22;38930;52.766;6.884;2023-06-14T14:12:03;27.50;72.10
53045;DHT22;38930;52.766;6.884;2023-06-14T14:14:31;27.30;73.30
53045;DHT22;38930;52.766;6.884;2023-06-14T14:16:57;27.30;73.00
53045;DHT22;38930;52.766;6.884;2023-06-14T14:19:23;27.40;73.00
53045;DHT22;38930;52.766;6.884;2023-06-14T14:21:49;27.60;72.30
53045;DHT22;38930;52.766;6.884;2023-06-14T14:24:14;27.50;73.40
53045;DHT22;38930;52.766;6.884;2023-06-14T14:26:41;27.30;73.10
53045;DHT22;38930;52.766;6.884;2023-06-14T14:29:06;26.90;72.50
53045;DHT22;38930;52.766;6.884;2023-06-14T14:31:32;26.70;73.60
53045;DHT22;38930;52.766;6.884;2023-06-14T14:33:58;26.80;74.20
53045;DHT22;38930;52.766;6.884;2023-06-14T14:36:23;26.90;72.80
53045;DHT22;38930;52.766;6.884;2023-06-14T14:38:49;27.10;73.40
53045;DHT22;38930;52.766;6.884;2023-06-14T14:41:17;27.20;73.20
53045;DHT22;38930;52.766;6.884;2023-06-14T14:43:42;27.10;73.30
53045;DHT22;38930;52.766;6.884;2023-06-14T14:46:08;26.70;72.60
53045;DHT22;38930;52.766;6.884;2023-06-14T14:48:33;26.60;72.90
53045;DHT22;38930;52.766;6.884;2023-06-14T14:50:59;26.50;73.40
53045;DHT22;38930;52.766;6.884;2023-06-14T14:53:25;26.70;73.90
53045;DHT22;38930;52.766;6.884;2023-06-14T14:55:50;26.90;74.10
53045;DHT22;38930;52.766;6.884;2023-06-14T14:58:16;27.20;73.70
53045;DHT22;38930;52.766;6.884;2023-06-14T15:00:44;27.20;74.10
53045;DHT22;38930;52.766;6.884;2023-06-14T15:03:09;27.30;74.30
53045;DHT22;38930;52.766;6.884;2023-06-14T15:05:35;27.20;73.20
53045;DHT22;38930;52.766;6.884;2023-06-14T15:08:02;27.20;73.40
53045;DHT22;38930;52.766;6.884;2023-06-14T15:10:28;27.20;71.90
53045;DHT22;38930;52.766;6.884;2023-06-14T15:12:53;27.20;71.40
53045;DHT22;38930;52.766;6.884;2023-06-14T15:15:19;27.30;72.00
53045;DHT22;38930;52.766;6.884;2023-06-14T15:17:45;27.40;72.40
53045;DHT22;38930;52.766;6.884;2023-06-14T15:20:11;27.40;72.30
53045;DHT22;38930;52.766;6.884;2023-06-14T15:22:38;27.30;70.90
53045;DHT22;38930;52.766;6.884;2023-06-14T15:25:04;27.40;72.10
53045;DHT22;38930;52.766;6.884;2023-06-14T15:27:30;27.50;70.20
53045;DHT22;38930;52.766;6.884;2023-06-14T15:29:55;27.50;71.80
53045;DHT22;38930;52.766;6.884;2023-06-14T15:32:21;27.50;71.90
53045;DHT22;38930;52.766;6.884;2023-06-14T15:34:47;27.50;71.70
53045;DHT22;38930;52.766;6.884;2023-06-14T15:37:13;27.30;71.50
53045;DHT22;38930;52.766;6.884;2023-06-14T15:39:38;27.10;71.60